createdAt,value
2019-03-11T00:00:52.017Z,86.34
2019-03-11T00:01:52.064Z,86.44
2019-03-11T00:02:52.088Z,86.86
2019-03-11T00:03:51.987Z,86.65
2019-03-11T00:04:51.974Z,86.34
2019-03-11T00:05:51.963Z,86.86
2019-03-11T00:06:51.947Z,86.55
2019-03-11T00:07:51.933Z,86.44
2019-03-11T00:08:51.940Z,86.76
2019-03-11T00:09:51.921Z,86.76
2019-03-11T00:10:51.906Z,87.48
2019-03-11T00:11:51.899Z,87.48
2019-03-11T00:12:51.893Z,87.59
2019-03-11T00:13:51.897Z,87.48
2019-03-11T00:14:51.856Z,87.63
2019-03-11T00:15:51.848Z,87.59
2019-03-11T00:16:51.839Z,87.07
2019-03-11T00:17:51.833Z,87.42
2019-03-11T00:18:51.868Z,88.00
2019-03-11T00:19:51.808Z,87.79
2019-03-11T00:20:51.840Z,87.38
2019-03-11T00:21:51.792Z,87.69
2019-03-11T00:22:51.779Z,87.38
2019-03-11T00:23:51.769Z,87.84
2019-03-11T00:24:51.781Z,86.80
2019-03-11T00:25:51.744Z,87.21
2019-03-11T00:26:51.736Z,87.32
2019-03-11T00:27:51.720Z,86.69
2019-03-11T00:28:51.735Z,86.65
2019-03-11T00:29:51.709Z,86.55
2019-03-11T00:30:51.724Z,86.59
2019-03-11T00:31:51.688Z,86.44
2019-03-11T00:32:51.677Z,86.38
2019-03-11T00:33:52.196Z,86.13
2019-03-11T00:34:51.655Z,86.76
2019-03-11T00:35:51.648Z,86.03
2019-03-11T00:36:51.680Z,85.96
2019-03-11T00:37:51.619Z,86.13
2019-03-11T00:38:51.611Z,86.55
2019-03-11T00:39:51.596Z,85.75
2019-03-11T00:40:51.588Z,85.72
2019-03-11T00:41:51.613Z,86.34
2019-03-11T00:42:51.579Z,86.03
2019-03-11T00:43:59.717Z,86.34
2019-03-11T00:44:51.548Z,85.82
2019-03-11T00:45:59.080Z,85.82
2019-03-11T00:47:01.068Z,85.82
2019-03-11T00:48:01.531Z,85.72
2019-03-11T00:48:59.054Z,85.72
2019-03-11T00:49:59.833Z,85.82
2019-03-11T00:50:51.499Z,85.41
2019-03-11T00:51:59.849Z,85.51
2019-03-11T00:53:01.007Z,86.24
2019-03-11T00:53:51.465Z,86.27
2019-03-11T00:54:51.459Z,85.93
2019-03-11T00:55:51.444Z,86.24
2019-03-11T00:56:51.429Z,85.55
2019-03-11T00:57:51.440Z,85.20
2019-03-11T00:58:51.437Z,85.61
2019-03-11T00:59:51.400Z,85.34
2019-03-11T01:00:51.418Z,85.51
2019-03-11T01:01:51.376Z,85.72
2019-03-11T01:02:51.367Z,85.61
2019-03-11T01:03:51.380Z,86.03
2019-03-11T01:04:51.357Z,85.55
2019-03-11T01:05:51.329Z,85.51
2019-03-11T01:06:51.318Z,85.20
2019-03-11T01:07:51.322Z,85.44
2019-03-11T01:08:51.323Z,85.61
2019-03-11T01:09:51.289Z,85.41
2019-03-11T01:10:51.297Z,85.55
2019-03-11T01:11:51.274Z,85.30
2019-03-11T01:12:51.262Z,85.10
2019-03-11T01:13:51.259Z,84.68
2019-03-11T01:14:51.268Z,83.95
2019-03-11T01:15:51.242Z,84.05
2019-03-11T01:16:51.212Z,84.16
2019-03-11T01:17:51.204Z,84.37
2019-03-11T01:18:51.236Z,84.27
2019-03-11T01:19:51.190Z,83.68
2019-03-11T01:20:51.207Z,84.16
2019-03-11T01:21:51.215Z,84.09
2019-03-11T01:22:51.161Z,84.78
2019-03-11T01:23:51.149Z,84.78
2019-03-11T01:24:51.138Z,84.16
2019-03-11T01:25:51.133Z,83.74
2019-03-11T01:26:51.114Z,83.53
2019-03-11T01:27:51.119Z,83.64
2019-03-11T01:28:51.086Z,84.41
2019-03-11T01:29:51.082Z,84.47
2019-03-11T01:30:51.070Z,84.41
2019-03-11T01:31:51.073Z,83.95
2019-03-11T01:32:51.074Z,84.68
2019-03-11T01:33:51.043Z,84.27
2019-03-11T01:34:51.057Z,84.37
2019-03-11T01:35:51.021Z,83.84
2019-03-11T01:36:51.005Z,84.27
2019-03-11T01:37:51.028Z,84.78
2019-03-11T01:38:50.984Z,84.05
2019-03-11T01:39:50.982Z,84.68
2019-03-11T01:40:50.971Z,84.27
2019-03-11T01:41:50.959Z,84.27
2019-03-11T01:42:51.930Z,84.58
2019-03-11T01:43:50.949Z,84.58
2019-03-11T01:44:50.930Z,84.41
2019-03-11T01:45:50.916Z,84.37
2019-03-11T01:46:50.908Z,83.89
2019-03-11T01:47:50.917Z,84.68
2019-03-11T01:48:50.879Z,84.51
2019-03-11T01:49:50.875Z,84.78
2019-03-11T01:50:50.858Z,84.41
2019-03-11T01:51:50.854Z,84.58
2019-03-11T01:52:50.843Z,84.30
2019-03-11T01:53:50.851Z,84.58
2019-03-11T01:54:50.821Z,83.43
2019-03-11T01:55:50.811Z,84.16
2019-03-11T01:56:50.796Z,84.27
2019-03-11T01:57:50.821Z,83.95
2019-03-11T01:58:50.783Z,82.81
2019-03-11T01:59:50.762Z,83.12
2019-03-11T02:00:50.752Z,83.53
2019-03-11T02:01:50.745Z,83.64
2019-03-11T02:02:50.734Z,83.84
2019-03-11T02:03:50.752Z,83.64
2019-03-11T02:04:50.734Z,83.74
2019-03-11T02:05:50.710Z,83.84
2019-03-11T02:06:50.704Z,84.05
2019-03-11T02:07:50.683Z,83.74
2019-03-11T02:08:50.708Z,83.74
2019-03-11T02:09:50.659Z,83.74
2019-03-11T02:10:50.653Z,84.05
2019-03-11T02:11:50.652Z,83.22
2019-03-11T02:12:50.640Z,83.95
2019-03-11T02:13:50.631Z,83.95
2019-03-11T02:14:50.644Z,83.84
2019-03-11T02:15:50.608Z,83.95
2019-03-11T02:16:50.628Z,84.05
2019-03-11T02:17:50.583Z,84.05
2019-03-11T02:18:50.573Z,84.47
2019-03-11T02:19:50.561Z,84.05
2019-03-11T02:20:50.574Z,84.05
2019-03-11T02:21:50.534Z,84.22
2019-03-11T02:22:50.526Z,84.05
2019-03-11T02:23:50.521Z,84.05
2019-03-11T02:24:50.514Z,84.47
2019-03-11T02:25:50.520Z,84.78
2019-03-11T02:26:50.501Z,85.51
2019-03-11T02:27:50.476Z,85.55
2019-03-11T02:28:50.467Z,85.61
2019-03-11T02:29:50.651Z,84.92
2019-03-11T02:30:50.487Z,85.72
2019-03-11T02:31:50.436Z,85.20
2019-03-11T02:32:50.427Z,85.55
2019-03-11T02:33:50.413Z,85.65
2019-03-11T02:34:50.401Z,84.51
2019-03-11T02:35:50.513Z,84.61
2019-03-11T02:36:50.446Z,84.72
2019-03-11T02:37:50.386Z,84.92
2019-03-11T02:38:50.367Z,84.82
2019-03-11T02:39:50.377Z,85.55
2019-03-11T02:40:50.340Z,85.34
2019-03-11T02:41:50.373Z,85.75
2019-03-11T02:42:50.318Z,86.17
2019-03-11T02:43:50.314Z,85.65
2019-03-11T02:44:50.317Z,85.55
2019-03-11T02:45:50.284Z,85.44
2019-03-11T02:46:50.823Z,85.96
2019-03-11T02:47:50.273Z,86.59
2019-03-11T02:48:50.270Z,86.59
2019-03-11T02:49:50.250Z,86.07
2019-03-11T02:50:50.238Z,86.80
2019-03-11T02:51:50.230Z,86.21
2019-03-11T02:52:50.272Z,86.57
2019-03-11T02:53:50.202Z,86.77
2019-03-11T02:54:50.205Z,87.81
2019-03-11T02:55:51.207Z,87.88
2019-03-11T02:56:50.180Z,87.81
2019-03-11T02:57:50.179Z,87.71
2019-03-11T02:58:50.184Z,87.98
2019-03-11T02:59:50.156Z,88.12
2019-03-11T03:00:50.144Z,87.81
2019-03-11T03:01:50.156Z,87.60
2019-03-11T03:02:50.186Z,87.81
2019-03-11T03:03:50.099Z,87.71
2019-03-11T03:04:50.105Z,88.33
2019-03-11T03:05:50.079Z,88.33
2019-03-11T03:06:50.086Z,88.37
2019-03-11T03:07:50.084Z,88.33
2019-03-11T03:08:50.073Z,88.43
2019-03-11T03:09:50.050Z,88.75
2019-03-11T03:10:50.043Z,88.12
2019-03-11T03:11:50.021Z,88.68
2019-03-11T03:12:50.005Z,88.58
2019-03-11T03:13:50.016Z,88.64
2019-03-11T03:14:49.987Z,88.75
2019-03-11T03:15:49.979Z,88.64
2019-03-11T03:16:49.976Z,89.06
2019-03-11T03:17:49.990Z,89.17
2019-03-11T03:18:49.947Z,88.23
2019-03-11T03:19:49.943Z,88.96
2019-03-11T03:20:49.956Z,88.33
2019-03-11T03:21:49.918Z,88.96
2019-03-11T03:22:57.485Z,88.75
2019-03-11T03:23:49.920Z,89.06
2019-03-11T03:24:49.899Z,88.96
2019-03-11T03:25:50.408Z,89.06
2019-03-11T03:26:49.889Z,89.48
2019-03-11T03:27:50.045Z,89.48
2019-03-11T03:28:49.873Z,89.06
2019-03-11T03:29:49.850Z,88.85
2019-03-11T03:30:49.844Z,88.85
2019-03-11T03:31:49.903Z,88.96
2019-03-11T03:32:49.846Z,89.27
2019-03-11T03:33:49.799Z,88.85
2019-03-11T03:34:49.788Z,89.48
2019-03-11T03:35:49.766Z,88.85
2019-03-11T03:36:49.764Z,89.06
2019-03-11T03:37:49.748Z,88.92
2019-03-11T03:38:49.768Z,89.06
2019-03-11T03:39:49.733Z,89.02
2019-03-11T03:40:49.721Z,89.33
2019-03-11T03:41:49.717Z,89.37
2019-03-11T03:42:49.760Z,89.06
2019-03-11T03:43:49.707Z,89.27
2019-03-11T03:44:49.686Z,89.54
2019-03-11T03:45:49.666Z,88.85
2019-03-11T03:46:49.666Z,89.06
2019-03-11T03:47:49.647Z,88.85
2019-03-11T03:48:49.993Z,89.43
2019-03-11T03:49:49.652Z,89.17
2019-03-11T03:50:49.678Z,89.02
2019-03-11T03:51:49.614Z,89.48
2019-03-11T03:52:49.610Z,89.58
2019-03-11T03:53:49.585Z,89.23
2019-03-11T03:54:49.605Z,89.69
2019-03-11T03:55:49.554Z,89.33
2019-03-11T03:56:49.551Z,89.79
2019-03-11T03:57:49.548Z,89.43
2019-03-11T03:58:49.547Z,89.33
2019-03-11T03:59:49.523Z,89.54
2019-03-11T04:00:49.529Z,89.69
2019-03-11T04:01:49.496Z,89.85
2019-03-11T04:02:49.495Z,89.43
2019-03-11T04:03:49.497Z,89.43
2019-03-11T04:04:49.471Z,89.17
2019-03-11T04:05:49.487Z,89.06
2019-03-11T04:06:49.445Z,89.33
2019-03-11T04:07:49.440Z,89.54
2019-03-11T04:08:49.423Z,89.37
2019-03-11T04:09:49.509Z,89.12
2019-03-11T04:10:49.411Z,89.89
2019-03-11T04:11:49.414Z,89.58
2019-03-11T04:12:49.384Z,90.62
2019-03-11T04:13:49.372Z,89.27
2019-03-11T04:14:49.369Z,89.12
2019-03-11T04:15:49.373Z,89.02
2019-03-11T04:16:49.362Z,89.64
2019-03-11T04:17:49.343Z,89.58
2019-03-11T04:18:49.328Z,89.58
2019-03-11T04:19:49.312Z,90.47
2019-03-11T04:20:49.301Z,90.47
2019-03-11T04:21:49.290Z,89.75
2019-03-11T04:22:49.314Z,89.23
2019-03-11T04:23:49.272Z,89.12
2019-03-11T04:24:49.258Z,89.43
2019-03-11T04:25:49.252Z,90.26
2019-03-11T04:26:49.232Z,89.95
2019-03-11T04:27:49.240Z,90.16
2019-03-11T04:28:49.208Z,90.47
2019-03-11T04:29:49.206Z,90.47
2019-03-11T04:30:49.199Z,90.16
2019-03-11T04:31:49.188Z,89.54
2019-03-11T04:32:49.209Z,90.37
2019-03-11T04:33:49.164Z,90.10
2019-03-11T04:34:49.158Z,90.26
2019-03-11T04:35:49.166Z,90.20
2019-03-11T04:36:49.134Z,90.47
2019-03-11T04:37:49.124Z,89.69
2019-03-11T04:38:49.143Z,90.10
2019-03-11T04:39:49.102Z,90.47
2019-03-11T04:40:49.085Z,90.58
2019-03-11T04:41:49.085Z,89.85
2019-03-11T04:42:49.075Z,90.89
2019-03-11T04:43:49.611Z,90.37
2019-03-11T04:44:49.051Z,89.95
2019-03-11T04:45:49.036Z,90.37
2019-03-11T04:46:49.040Z,89.54
2019-03-11T04:47:49.018Z,89.85
2019-03-11T04:48:49.006Z,89.64
2019-03-11T04:49:49.023Z,89.64
2019-03-11T04:50:49.014Z,89.23
2019-03-11T04:51:48.976Z,89.43
2019-03-11T04:52:48.965Z,89.54
2019-03-11T04:53:48.962Z,89.33
2019-03-11T04:54:48.949Z,89.12
2019-03-11T04:55:48.955Z,89.12
2019-03-11T04:56:48.927Z,88.81
2019-03-11T04:57:48.912Z,89.02
2019-03-11T04:58:48.899Z,88.81
2019-03-11T04:59:48.913Z,89.02
2019-03-11T05:00:48.912Z,89.02
2019-03-11T05:01:48.877Z,89.12
2019-03-11T05:02:48.861Z,88.92
2019-03-11T05:03:48.855Z,89.23
2019-03-11T05:04:48.848Z,89.08
2019-03-11T05:05:48.856Z,88.77
2019-03-11T05:06:48.815Z,88.98
2019-03-11T05:07:48.813Z,89.08
2019-03-11T05:08:48.807Z,89.23
2019-03-11T05:09:48.791Z,88.67
2019-03-11T05:10:48.772Z,88.56
2019-03-11T05:11:48.787Z,88.46
2019-03-11T05:12:48.778Z,88.46
2019-03-11T05:13:48.750Z,88.15
2019-03-11T05:14:48.746Z,88.46
2019-03-11T05:15:48.732Z,88.35
2019-03-11T05:16:48.746Z,87.84
2019-03-11T05:17:49.029Z,88.15
2019-03-11T05:18:48.690Z,88.04
2019-03-11T05:19:48.685Z,87.84
2019-03-11T05:20:48.738Z,87.94
2019-03-11T05:21:48.671Z,88.25
2019-03-11T05:22:48.676Z,88.25
2019-03-11T05:23:48.665Z,88.35
2019-03-11T05:24:48.634Z,88.15
2019-03-11T05:25:48.624Z,88.15
2019-03-11T05:26:48.613Z,88.25
2019-03-11T05:27:48.608Z,88.15
2019-03-11T05:28:49.499Z,88.56
2019-03-11T05:29:49.591Z,89.08
2019-03-11T05:30:48.566Z,88.35
2019-03-11T05:31:48.559Z,88.77
2019-03-11T05:32:48.554Z,88.15
2019-03-11T05:33:48.599Z,88.46
2019-03-11T05:34:48.548Z,88.35
2019-03-11T05:35:48.512Z,88.46
2019-03-11T05:36:48.505Z,87.79
2019-03-11T05:37:48.512Z,87.38
2019-03-11T05:38:48.491Z,87.63
2019-03-11T05:39:48.500Z,87.79
2019-03-11T05:40:48.466Z,87.59
2019-03-11T05:41:48.456Z,88.10
2019-03-11T05:42:48.446Z,87.38
2019-03-11T05:43:48.438Z,87.01
2019-03-11T05:44:48.442Z,86.90
2019-03-11T05:45:48.425Z,86.65
2019-03-11T05:46:48.404Z,87.73
2019-03-11T05:47:48.391Z,86.03
2019-03-11T05:48:48.376Z,86.34
2019-03-11T05:49:48.377Z,86.07
2019-03-11T05:50:48.382Z,86.44
2019-03-11T05:51:48.352Z,86.03
2019-03-11T05:52:48.346Z,85.93
2019-03-11T05:53:48.322Z,85.72
2019-03-11T05:54:48.351Z,86.13
2019-03-11T05:55:48.356Z,85.30
2019-03-11T05:56:48.306Z,85.72
2019-03-11T05:57:48.283Z,85.72
2019-03-11T05:58:48.283Z,85.20
2019-03-11T05:59:48.262Z,84.89
2019-03-11T06:00:48.254Z,84.58
2019-03-11T06:01:48.267Z,84.47
2019-03-11T06:02:48.239Z,83.95
2019-03-11T06:03:48.248Z,83.95
2019-03-11T06:04:48.227Z,84.22
2019-03-11T06:05:48.200Z,83.81
2019-03-11T06:06:48.211Z,84.12
2019-03-11T06:07:48.177Z,84.33
2019-03-11T06:08:48.173Z,82.35
2019-03-11T06:09:48.165Z,83.39
2019-03-11T06:10:48.157Z,82.98
2019-03-11T06:11:48.168Z,83.60
2019-03-11T06:12:48.127Z,83.39
2019-03-11T06:13:48.128Z,83.15
2019-03-11T06:14:48.152Z,83.15
2019-03-11T06:15:48.161Z,82.53
2019-03-11T06:16:48.091Z,82.94
2019-03-11T06:17:48.198Z,82.01
2019-03-11T06:18:48.073Z,81.70
2019-03-11T06:19:48.056Z,81.70
2019-03-11T06:20:48.046Z,81.70
2019-03-11T06:21:48.039Z,81.70
2019-03-11T06:22:48.034Z,82.42
2019-03-11T06:23:48.041Z,82.01
2019-03-11T06:24:48.006Z,82.42
2019-03-11T06:25:47.997Z,81.90
2019-03-11T06:26:47.991Z,82.11
2019-03-11T06:27:47.985Z,81.59
2019-03-11T06:28:49.214Z,81.80
2019-03-11T06:29:47.953Z,82.53
2019-03-11T06:30:47.936Z,82.53
2019-03-11T06:31:47.935Z,81.59
2019-03-11T06:32:47.921Z,81.80
2019-03-11T06:33:47.910Z,81.70
2019-03-11T06:34:47.927Z,81.80
2019-03-11T06:35:47.893Z,81.90
2019-03-11T06:36:47.881Z,82.01
2019-03-11T06:37:47.868Z,81.80
2019-03-11T06:38:47.853Z,81.45
2019-03-11T06:39:47.876Z,81.18
2019-03-11T06:40:47.831Z,81.80
2019-03-11T06:41:47.831Z,80.87
2019-03-11T06:42:47.820Z,80.97
2019-03-11T06:43:47.830Z,81.18
2019-03-11T06:44:47.808Z,81.18
2019-03-11T06:45:47.796Z,80.35
2019-03-11T06:46:47.820Z,81.24
2019-03-11T06:47:47.770Z,81.87
2019-03-11T06:48:47.754Z,80.68
2019-03-11T06:49:47.744Z,80.37
2019-03-11T06:50:47.733Z,80.37
2019-03-11T06:51:47.728Z,79.65
2019-03-11T06:52:47.724Z,79.44
2019-03-11T06:53:47.706Z,79.20
2019-03-11T06:54:47.689Z,77.81
2019-03-11T06:55:47.693Z,77.95
2019-03-11T06:56:47.680Z,77.89
2019-03-11T06:57:47.687Z,78.72
2019-03-11T06:58:47.643Z,78.72
2019-03-11T06:59:47.651Z,80.37
2019-03-11T07:00:47.631Z,79.90
2019-03-11T07:01:47.637Z,79.85
2019-03-11T07:02:47.602Z,79.65
2019-03-11T07:03:47.609Z,79.44
2019-03-11T07:04:47.581Z,79.13
2019-03-11T07:05:47.583Z,77.64
2019-03-11T07:06:47.568Z,77.81
2019-03-11T07:07:47.563Z,77.15
2019-03-11T07:08:47.583Z,75.98
2019-03-11T07:09:47.530Z,76.32
2019-03-11T07:10:47.527Z,76.88
2019-03-11T07:11:47.525Z,76.84
2019-03-11T07:12:47.531Z,75.95
2019-03-11T07:13:47.496Z,77.29
2019-03-11T07:14:47.516Z,77.40
2019-03-11T07:15:47.499Z,77.71
2019-03-11T07:16:47.463Z,77.40
2019-03-11T07:17:47.459Z,76.32
2019-03-11T07:18:47.443Z,75.05
2019-03-11T07:19:47.435Z,73.98
2019-03-11T07:20:47.448Z,74.19
2019-03-11T07:21:47.419Z,72.81
2019-03-11T07:22:49.318Z,71.64
2019-03-11T07:23:47.390Z,71.61
2019-03-11T07:24:47.381Z,69.92
2019-03-11T07:25:55.047Z,70.92
2019-03-11T07:26:47.358Z,73.84
2019-03-11T07:27:47.347Z,76.19
2019-03-11T07:28:47.342Z,77.47
2019-03-11T07:29:47.326Z,77.75
2019-03-11T07:30:47.335Z,77.15
2019-03-11T07:31:47.305Z,72.36
2019-03-11T07:32:47.289Z,68.27
2019-03-11T07:33:47.286Z,66.56
2019-03-11T07:34:47.269Z,65.81
2019-03-11T07:35:47.295Z,65.37
2019-03-11T07:36:47.252Z,64.69
2019-03-11T07:37:47.253Z,64.29
2019-03-11T07:38:47.231Z,68.34
2019-03-11T07:39:47.212Z,70.09
2019-03-11T07:40:47.203Z,72.71
2019-03-11T07:41:47.257Z,72.85
2019-03-11T07:42:47.181Z,73.25
2019-03-11T07:43:47.186Z,72.78
2019-03-11T07:44:47.166Z,72.39
2019-03-11T07:45:47.155Z,73.54
2019-03-11T07:46:47.142Z,73.57
2019-03-11T07:47:47.162Z,75.05
2019-03-11T07:48:47.129Z,73.94
2019-03-11T07:49:47.126Z,70.68
2019-03-11T07:50:47.111Z,64.51
2019-03-11T07:51:47.085Z,62.85
2019-03-11T07:52:47.099Z,61.79
2019-03-11T07:53:47.157Z,64.68
2019-03-11T07:54:47.063Z,67.24
2019-03-11T07:55:47.048Z,69.92
2019-03-11T07:56:47.038Z,71.92
2019-03-11T07:57:47.026Z,73.29
2019-03-11T07:58:47.049Z,74.36
2019-03-11T07:59:46.999Z,74.71
2019-03-11T08:00:53.735Z,75.46
2019-03-11T08:01:47.983Z,75.60
2019-03-11T08:02:46.974Z,75.63
2019-03-11T08:03:46.956Z,76.26
2019-03-11T08:04:46.979Z,75.53
2019-03-11T08:05:46.958Z,75.32
2019-03-11T08:06:46.936Z,76.15
2019-03-11T08:07:46.946Z,76.02
2019-03-11T08:08:46.915Z,75.92
2019-03-11T08:09:46.903Z,75.60
2019-03-11T08:10:46.913Z,75.95
2019-03-11T08:11:46.907Z,75.63
2019-03-11T08:12:46.871Z,75.29
2019-03-11T08:13:46.856Z,76.12
2019-03-11T08:14:46.851Z,75.92
2019-03-11T08:15:46.869Z,74.98
2019-03-11T08:16:46.831Z,75.50
2019-03-11T08:17:46.825Z,75.60
2019-03-11T08:18:46.826Z,75.40
2019-03-11T08:19:46.805Z,74.15
2019-03-11T08:20:46.782Z,74.26
2019-03-11T08:21:46.772Z,75.29
2019-03-11T08:22:46.797Z,75.60
2019-03-11T08:23:46.752Z,75.60
2019-03-11T08:24:46.744Z,74.67
2019-03-11T08:25:46.725Z,74.36
2019-03-11T08:26:46.717Z,74.57
2019-03-11T08:27:46.720Z,74.40
2019-03-11T08:28:46.741Z,73.77
2019-03-11T08:29:46.701Z,75.84
2019-03-11T08:30:46.686Z,75.71
2019-03-11T08:31:46.666Z,75.02
2019-03-11T08:32:47.482Z,74.77
2019-03-11T08:33:55.236Z,74.98
2019-03-11T08:34:46.670Z,75.71
2019-03-11T08:35:46.672Z,75.71
2019-03-11T08:36:46.607Z,75.19
2019-03-11T08:37:46.617Z,75.46
2019-03-11T08:38:46.612Z,75.05
2019-03-11T08:39:46.583Z,73.50
2019-03-11T08:40:46.604Z,73.63
2019-03-11T08:41:46.554Z,74.02
2019-03-11T08:42:46.559Z,73.81
2019-03-11T08:43:46.533Z,74.53
2019-03-11T08:44:47.508Z,74.88
2019-03-11T08:45:46.527Z,74.05
2019-03-11T08:46:46.525Z,73.74
2019-03-11T08:47:46.489Z,73.94
2019-03-11T08:48:46.478Z,73.63
2019-03-11T08:49:46.474Z,73.84
2019-03-11T08:50:46.471Z,73.53
2019-03-11T08:51:46.518Z,74.19
2019-03-11T08:52:46.448Z,74.19
2019-03-11T08:53:46.428Z,75.32
2019-03-11T08:54:46.418Z,74.91
2019-03-11T08:55:46.407Z,75.43
2019-03-11T08:56:46.394Z,75.32
2019-03-11T08:57:46.417Z,75.22
2019-03-11T08:58:46.380Z,75.63
2019-03-11T08:59:46.371Z,75.43
2019-03-11T09:00:46.359Z,74.91
2019-03-11T09:01:46.342Z,75.43
2019-03-11T09:02:46.332Z,75.02
2019-03-11T09:03:48.030Z,75.29
2019-03-11T09:04:46.324Z,73.98
2019-03-11T09:05:46.303Z,74.71
2019-03-11T09:06:46.294Z,74.08
2019-03-11T09:07:46.283Z,74.29
2019-03-11T09:08:46.295Z,75.74
2019-03-11T09:09:46.264Z,74.71
2019-03-11T09:10:46.261Z,75.12
2019-03-11T09:11:46.245Z,75.19
2019-03-11T09:12:46.238Z,75.74
2019-03-11T09:13:46.245Z,75.63
2019-03-11T09:14:46.206Z,75.74
2019-03-11T09:15:46.196Z,75.43
2019-03-11T09:16:46.186Z,75.40
2019-03-11T09:17:46.180Z,75.40
2019-03-11T09:18:46.211Z,75.32
2019-03-11T09:19:46.152Z,75.43
2019-03-11T09:20:46.142Z,75.43
2019-03-11T09:21:46.145Z,75.22
2019-03-11T09:22:46.133Z,75.53
2019-03-11T09:23:46.119Z,75.22
2019-03-11T09:24:46.121Z,75.12
2019-03-11T09:25:46.123Z,75.02
2019-03-11T09:26:46.082Z,75.32
2019-03-11T09:27:46.078Z,75.43
2019-03-11T09:28:46.062Z,74.19
2019-03-11T09:29:46.064Z,74.08
2019-03-11T09:30:46.055Z,74.57
2019-03-11T09:31:46.072Z,74.91
2019-03-11T09:32:46.028Z,74.15
2019-03-11T09:33:46.021Z,73.94
2019-03-11T09:34:46.005Z,72.71
2019-03-11T09:35:46.003Z,73.11
2019-03-11T09:36:46.019Z,73.32
2019-03-11T09:37:45.972Z,73.50
2019-03-11T09:38:45.957Z,72.25
2019-03-11T09:39:46.677Z,71.94
2019-03-11T09:40:45.937Z,71.73
2019-03-11T09:41:45.940Z,71.94
2019-03-11T09:42:45.945Z,71.43
2019-03-11T09:43:45.940Z,71.63
2019-03-11T09:44:45.918Z,71.39
2019-03-11T09:45:45.884Z,71.08
2019-03-11T09:46:45.878Z,70.87
2019-03-11T09:47:45.863Z,70.98
2019-03-11T09:48:45.858Z,70.98
2019-03-11T09:49:45.880Z,70.98
2019-03-11T09:50:45.839Z,70.87
2019-03-11T09:51:45.824Z,70.47
2019-03-11T09:52:45.812Z,70.64
2019-03-11T09:53:45.805Z,70.74
2019-03-11T09:54:45.799Z,70.92
2019-03-11T09:55:45.815Z,70.16
2019-03-11T09:56:45.775Z,68.88
2019-03-11T09:57:45.762Z,68.27
2019-03-11T09:58:45.748Z,67.75
2019-03-11T09:59:45.740Z,67.44
2019-03-11T10:00:45.728Z,66.93
2019-03-11T10:01:45.745Z,67.34
2019-03-11T10:02:52.155Z,67.47
2019-03-11T10:03:46.701Z,68.40
2019-03-11T10:04:45.690Z,69.33
2019-03-11T10:05:45.689Z,68.19
2019-03-11T10:06:45.695Z,68.92
2019-03-11T10:07:45.702Z,68.51
2019-03-11T10:08:45.656Z,68.43
2019-03-11T10:09:45.632Z,68.43
2019-03-11T10:10:45.670Z,68.64
2019-03-11T10:11:45.611Z,68.74
2019-03-11T10:12:45.632Z,69.60
2019-03-11T10:13:45.616Z,69.29
2019-03-11T10:14:45.591Z,68.85
2019-03-11T10:15:45.573Z,69.37
2019-03-11T10:16:45.567Z,69.02
2019-03-11T10:17:45.587Z,67.88
2019-03-11T10:18:45.546Z,67.85
2019-03-11T10:19:45.524Z,68.06
2019-03-11T10:20:45.531Z,67.54
2019-03-11T10:21:45.513Z,68.27
2019-03-11T10:22:45.501Z,68.27
2019-03-11T10:23:45.498Z,67.88
2019-03-11T10:24:45.487Z,69.40
2019-03-11T10:25:45.465Z,68.92
2019-03-11T10:26:45.459Z,69.88
2019-03-11T10:27:45.451Z,70.92
2019-03-11T10:28:45.464Z,71.43
2019-03-11T10:29:45.417Z,71.33
2019-03-11T10:30:45.404Z,71.95
2019-03-11T10:31:45.403Z,71.64
2019-03-11T10:32:45.394Z,71.30
2019-03-11T10:33:45.392Z,71.19
2019-03-11T10:34:45.394Z,71.43
2019-03-11T10:35:45.358Z,71.33
2019-03-11T10:36:45.351Z,71.53
2019-03-11T10:37:45.336Z,72.57
2019-03-11T10:38:45.319Z,73.19
2019-03-11T10:39:47.842Z,72.16
2019-03-11T10:40:45.311Z,70.98
2019-03-11T10:41:45.287Z,70.54
2019-03-11T10:42:45.275Z,70.03
2019-03-11T10:43:45.295Z,69.06
2019-03-11T10:44:45.259Z,68.65
2019-03-11T10:45:45.259Z,68.41
2019-03-11T10:46:45.243Z,67.69
2019-03-11T10:47:45.235Z,67.35
2019-03-11T10:48:45.228Z,66.21
2019-03-11T10:49:45.227Z,66.83
2019-03-11T10:50:45.214Z,66.86
2019-03-11T10:51:45.185Z,66.97
2019-03-11T10:52:45.173Z,67.07
2019-03-11T10:53:45.174Z,66.76
2019-03-11T10:54:45.194Z,68.00
2019-03-11T10:55:45.139Z,66.73
2019-03-11T10:56:45.129Z,66.73
2019-03-11T10:57:45.128Z,66.94
2019-03-11T10:58:45.118Z,66.08
2019-03-11T10:59:45.107Z,64.84
2019-03-11T11:00:45.115Z,65.64
2019-03-11T11:01:45.082Z,64.61
2019-03-11T11:02:45.068Z,64.78
2019-03-11T11:03:45.082Z,64.75
2019-03-11T11:04:45.045Z,64.75
2019-03-11T11:05:45.062Z,64.72
2019-03-11T11:06:45.075Z,64.24
2019-03-11T11:07:45.025Z,63.18
2019-03-11T11:08:45.010Z,62.97
2019-03-11T11:09:45.001Z,63.34
2019-03-11T11:10:45.000Z,64.71
2019-03-11T11:11:44.983Z,64.74
2019-03-11T11:12:44.995Z,66.31
2019-03-11T11:13:44.947Z,67.07
2019-03-11T11:14:44.940Z,67.27
2019-03-11T11:15:44.929Z,68.00
2019-03-11T11:16:46.547Z,67.93
2019-03-11T11:17:44.918Z,69.40
2019-03-11T11:18:44.939Z,70.33
2019-03-11T11:19:44.900Z,69.85
2019-03-11T11:20:44.887Z,71.12
2019-03-11T11:21:44.882Z,71.95
2019-03-11T11:22:44.870Z,72.78
2019-03-11T11:23:44.915Z,71.95
2019-03-11T11:24:44.838Z,73.50
2019-03-11T11:25:44.833Z,73.81
2019-03-11T11:26:44.830Z,74.02
2019-03-11T11:27:44.813Z,74.43
2019-03-11T11:28:44.814Z,74.98
2019-03-11T11:29:44.833Z,75.78
2019-03-11T11:30:44.789Z,75.88
2019-03-11T11:31:44.774Z,75.78
2019-03-11T11:32:44.761Z,76.43
2019-03-11T11:33:44.748Z,76.22
2019-03-11T11:34:44.765Z,75.36
2019-03-11T11:35:44.735Z,75.29
2019-03-11T11:36:44.710Z,75.19
2019-03-11T11:37:44.716Z,76.84
2019-03-11T11:38:44.705Z,76.22
2019-03-11T11:39:44.695Z,76.88
2019-03-11T11:40:44.693Z,76.05
2019-03-11T11:41:44.670Z,76.46
2019-03-11T11:42:44.645Z,78.16
2019-03-11T11:43:44.677Z,78.26
2019-03-11T11:44:44.633Z,78.26
2019-03-11T11:45:44.639Z,78.88
2019-03-11T11:46:44.618Z,78.26
2019-03-11T11:47:44.601Z,77.95
2019-03-11T11:48:44.585Z,79.40
2019-03-11T11:49:44.576Z,79.64
2019-03-11T11:50:44.589Z,80.88
2019-03-11T11:51:44.572Z,79.64
2019-03-11T11:52:44.576Z,79.78
2019-03-11T11:53:44.527Z,80.71
2019-03-11T11:54:44.521Z,80.61
2019-03-11T11:55:44.508Z,81.34
2019-03-11T11:56:44.521Z,80.71
2019-03-11T11:57:44.514Z,80.54
2019-03-11T11:58:44.482Z,80.13
2019-03-11T11:59:53.457Z,80.09
2019-03-11T12:00:45.496Z,79.71
2019-03-11T12:01:44.474Z,80.09
2019-03-11T12:02:44.462Z,79.16
2019-03-11T12:03:44.448Z,79.47
2019-03-11T12:04:44.423Z,80.30
2019-03-11T12:05:44.398Z,80.23
2019-03-11T12:06:44.409Z,80.13
2019-03-11T12:07:44.376Z,81.99
2019-03-11T12:08:44.436Z,81.65
2019-03-11T12:09:44.391Z,81.54
2019-03-11T12:10:44.349Z,81.44
2019-03-11T12:11:44.348Z,81.27
2019-03-11T12:12:44.322Z,81.58
2019-03-11T12:13:44.357Z,82.31
2019-03-11T12:14:44.303Z,81.58
2019-03-11T12:15:44.292Z,81.58
2019-03-11T12:16:44.279Z,81.65
2019-03-11T12:17:44.260Z,82.79
2019-03-11T12:18:44.282Z,81.13
2019-03-11T12:19:45.241Z,80.51
2019-03-11T12:20:44.236Z,81.09
2019-03-11T12:21:44.226Z,79.95
2019-03-11T12:22:44.215Z,80.05
2019-03-11T12:23:46.715Z,80.36
2019-03-11T12:24:44.195Z,80.88
2019-03-11T12:25:44.186Z,80.36
2019-03-11T12:26:46.130Z,80.78
2019-03-11T12:27:53.125Z,79.44
2019-03-11T12:28:45.171Z,81.09
2019-03-11T12:29:44.147Z,80.36
2019-03-11T12:30:44.198Z,80.47
2019-03-11T12:31:44.133Z,80.99
2019-03-11T12:32:44.115Z,79.64
2019-03-11T12:33:44.129Z,79.91
2019-03-11T12:34:44.140Z,79.54
2019-03-11T12:35:44.087Z,80.02
2019-03-11T12:36:44.075Z,80.99
2019-03-11T12:37:44.052Z,79.23
2019-03-11T12:38:44.042Z,80.16
2019-03-11T12:39:44.031Z,80.57
2019-03-11T12:40:44.118Z,80.99
2019-03-11T12:41:44.014Z,80.78
2019-03-11T12:42:44.012Z,80.47
2019-03-11T12:43:43.998Z,80.43
2019-03-11T12:44:43.989Z,80.02
2019-03-11T12:45:43.989Z,79.40
2019-03-11T12:46:43.960Z,80.26
2019-03-11T12:47:43.978Z,81.09
2019-03-11T12:48:43.942Z,80.26
2019-03-11T12:49:43.928Z,80.33
2019-03-11T12:50:43.946Z,79.60
2019-03-11T12:51:49.631Z,79.47
2019-03-11T12:52:44.911Z,80.29